Time,TemperatureF,DewpointF,PressureIn,WindDirection,WindDirectionDegrees,WindSpeedMPH,WindSpeedGustMPH,Humidity,HourlyPrecipIn,Conditions,Clouds,dailyrainin,SoftwareType,DateUTC
2013-12-02 00:06:00,36.3,31.3,29.89,SSE,157,0.0,-999.0,82,-99.99,,,0.00,Acu-Link.com,2013-12-02 05:06:00,
2013-12-02 00:21:00,36.1,31.4,29.88,ESE,112,0.0,-999.0,83,-99.99,,,0.00,Acu-Link.com,2013-12-02 05:21:00,
2013-12-02 00:36:00,36.0,31.6,29.88,ENE,67,0.0,-999.0,84,-99.99,,,0.00,Acu-Link.com,2013-12-02 05:36:00,
2013-12-02 00:51:00,35.4,31.1,29.88,NNE,22,0.0,-999.0,84,-99.99,,,0.00,Acu-Link.com,2013-12-02 05:51:00,
2013-12-02 01:07:00,35.4,31.3,29.87,SSE,157,0.0,-999.0,85,-99.99,,,0.00,Acu-Link.com,2013-12-02 06:07:00,
2013-12-02 01:22:00,35.2,31.2,29.87,SE,135,0.0,-999.0,85,-99.99,,,0.00,Acu-Link.com,2013-12-02 06:22:00,
2013-12-02 01:37:00,34.9,30.9,29.87,SE,135,0.0,-999.0,85,-99.99,,,0.00,Acu-Link.com,2013-12-02 06:37:00,
2013-12-02 01:52:00,34.5,30.8,29.87,NE,45,0.0,-999.0,86,-99.99,,,0.00,Acu-Link.com,2013-12-02 06:52:00,
2013-12-02 02:07:00,34.3,30.6,29.86,NE,45,0.0,-999.0,86,-99.99,,,0.00,Acu-Link.com,2013-12-02 07:07:00,
2013-12-02 02:22:00,34.2,30.7,29.86,West,270,0.0,-999.0,87,-99.99,,,0.00,Acu-Link.com,2013-12-02 07:22:00,
2013-12-02 02:37:00,33.6,30.2,29.86,SSE,157,0.0,-999.0,87,-99.99,,,0.00,Acu-Link.com,2013-12-02 07:37:00,
2013-12-02 02:52:00,33.3,30.4,29.86,ENE,67,0.0,-999.0,89,-99.99,,,0.00,Acu-Link.com,2013-12-02 07:52:00,
2013-12-02 03:08:00,33.4,30.8,29.86,NNE,22,0.0,-999.0,90,-99.99,,,0.00,Acu-Link.com,2013-12-02 08:08:00,
2013-12-02 03:23:00,33.8,31.2,29.86,SW,225,0.0,-999.0,90,-99.99,,,0.00,Acu-Link.com,2013-12-02 08:23:00,
2013-12-02 03:38:00,33.8,31.2,29.86,ENE,67,0.0,-999.0,90,-99.99,,,0.00,Acu-Link.com,2013-12-02 08:38:00,
2013-12-02 03:53:00,34.3,31.7,29.86,NE,45,0.0,-999.0,90,-99.99,,,0.00,Acu-Link.com,2013-12-02 08:53:00,
2013-12-02 04:09:00,34.7,31.8,29.84,NNE,22,0.0,-999.0,89,-99.99,,,0.00,Acu-Link.com,2013-12-02 09:09:00,
2013-12-02 04:24:00,34.9,31.7,29.84,NNE,22,2.2,-999.0,88,-99.99,,,0.00,Acu-Link.com,2013-12-02 09:24:00,
2013-12-02 04:39:00,34.9,31.7,29.83,WNW,292,0.0,-999.0,88,-99.99,,,0.00,Acu-Link.com,2013-12-02 09:39:00,
2013-12-02 04:54:00,35.1,31.9,29.84,SE,135,0.0,-999.0,88,-99.99,,,0.00,Acu-Link.com,2013-12-02 09:54:00,
2013-12-02 05:09:00,34.9,31.7,29.84,WNW,292,1.7,-999.0,88,-99.99,,,0.00,Acu-Link.com,2013-12-02 10:09:00,
2013-12-02 05:24:00,34.9,31.7,29.83,West,270,0.0,-999.0,88,-99.99,,,0.00,Acu-Link.com,2013-12-02 10:24:00,
2013-12-02 05:39:00,34.7,31.5,29.83,North,0,1.1,-999.0,88,-99.99,,,0.00,Acu-Link.com,2013-12-02 10:39:00,
2013-12-02 05:54:00,34.7,31.5,29.83,North,0,2.2,-999.0,88,-99.99,,,0.00,Acu-Link.com,2013-12-02 10:54:00,
2013-12-02 06:10:00,34.5,31.3,29.83,ENE,67,1.1,-999.0,88,-99.99,,,0.00,Acu-Link.com,2013-12-02 11:10:00,
2013-12-02 06:25:00,34.2,31.0,29.83,NNE,22,1.1,-999.0,88,-99.99,,,0.00,Acu-Link.com,2013-12-02 11:25:00,
2013-12-02 06:40:00,33.6,30.7,29.82,West,270,0.0,-999.0,89,-99.99,,,0.00,Acu-Link.com,2013-12-02 11:40:00,
2013-12-02 06:55:00,33.4,30.8,29.81,West,270,0.0,-999.0,90,-99.99,,,0.00,Acu-Link.com,2013-12-02 11:55:00,
2013-12-02 07:10:00,33.6,31.0,29.81,South,180,0.0,-999.0,90,-99.99,,,0.00,Acu-Link.com,2013-12-02 12:10:00,
2013-12-02 07:25:00,33.8,31.2,29.81,NE,45,0.0,-999.0,90,-99.99,,,0.00,Acu-Link.com,2013-12-02 12:25:00,
2013-12-02 07:40:00,34.2,31.3,29.81,North,0,4.2,-999.0,89,-99.99,,,0.00,Acu-Link.com,2013-12-02 12:40:00,
2013-12-02 07:55:00,34.5,31.3,29.81,East,90,0.0,-999.0,88,-99.99,,,0.00,Acu-Link.com,2013-12-02 12:55:00,
2013-12-02 08:11:00,34.7,31.5,29.81,NW,315,1.1,-999.0,88,-99.99,,,0.00,Acu-Link.com,2013-12-02 13:11:00,
2013-12-02 08:26:00,34.9,31.7,29.80,WNW,292,0.0,-999.0,88,-99.99,,,0.00,Acu-Link.com,2013-12-02 13:26:00,
2013-12-02 08:41:00,35.4,31.9,29.82,NNW,337,0.0,-999.0,87,-99.99,,,0.00,Acu-Link.com,2013-12-02 13:41:00,
2013-12-02 08:56:00,35.8,32.0,29.81,North,0,0.0,-999.0,86,-99.99,,,0.00,Acu-Link.com,2013-12-02 13:56:00,
2013-12-02 09:11:00,36.7,32.6,29.81,NNE,22,0.0,-999.0,85,-99.99,,,0.00,Acu-Link.com,2013-12-02 14:11:00,
2013-12-02 09:27:00,37.6,32.9,29.81,ESE,112,0.0,-999.0,83,-99.99,,,0.00,Acu-Link.com,2013-12-02 14:27:00,
2013-12-02 09:42:00,38.1,33.1,29.81,North,0,1.1,-999.0,82,-99.99,,,0.00,Acu-Link.com,2013-12-02 14:42:00,
2013-12-02 09:57:00,38.8,33.5,29.81,NE,45,0.0,-999.0,81,-99.99,,,0.00,Acu-Link.com,2013-12-02 14:57:00,
2013-12-02 10:12:00,39.4,33.8,29.81,West,270,0.0,-999.0,80,-99.99,,,0.00,Acu-Link.com,2013-12-02 15:12:00,
2013-12-02 10:27:00,40.6,34.6,29.80,NW,315,0.0,-999.0,79,-99.99,,,0.00,Acu-Link.com,2013-12-02 15:27:00,
2013-12-02 10:42:00,42.1,35.4,29.79,ENE,67,1.7,-999.0,77,-99.99,,,0.00,Acu-Link.com,2013-12-02 15:42:00,
2013-12-02 10:58:00,45.1,37.0,29.79,NNE,22,1.7,-999.0,73,-99.99,,,0.00,Acu-Link.com,2013-12-02 15:58:00,
2013-12-02 11:13:00,47.1,37.1,29.77,East,90,1.7,-999.0,68,-99.99,,,0.00,Acu-Link.com,2013-12-02 16:13:00,
2013-12-02 11:28:00,48.4,37.6,29.76,North,0,0.0,-999.0,66,-99.99,,,0.00,Acu-Link.com,2013-12-02 16:28:00,
2013-12-02 11:43:00,49.6,38.7,29.75,NNW,337,1.1,-999.0,66,-99.99,,,0.00,Acu-Link.com,2013-12-02 16:43:00,
2013-12-02 11:58:00,51.4,39.2,29.76,NNE,22,1.1,-999.0,63,-99.99,,,0.00,Acu-Link.com,2013-12-02 16:58:00,
2013-12-02 12:14:00,51.4,38.8,29.75,NW,315,0.0,-999.0,62,-99.99,,,0.00,Acu-Link.com,2013-12-02 17:14:00,
2013-12-02 12:29:00,50.7,39.0,29.75,NNE,22,0.0,-999.0,64,-99.99,,,0.00,Acu-Link.com,2013-12-02 17:29:00,
2013-12-02 12:44:00,50.2,38.9,29.75,SW,225,1.1,-999.0,65,-99.99,,,0.00,Acu-Link.com,2013-12-02 17:44:00,
2013-12-02 12:59:00,49.8,38.5,29.74,WNW,292,0.0,-999.0,65,-99.99,,,0.00,Acu-Link.com,2013-12-02 17:59:00,
2013-12-02 13:14:00,50.2,38.9,29.72,SSW,202,1.1,-999.0,65,-99.99,,,0.00,Acu-Link.com,2013-12-02 18:14:00,
2013-12-02 13:29:00,50.7,39.4,29.72,NNE,22,0.0,-999.0,65,-99.99,,,0.00,Acu-Link.com,2013-12-02 18:29:00,
2013-12-02 13:45:00,52.3,40.1,29.70,West,270,0.0,-999.0,63,-99.99,,,0.00,Acu-Link.com,2013-12-02 18:45:00,
2013-12-02 14:00:00,52.0,39.4,29.71,NNE,22,1.1,-999.0,62,-99.99,,,0.00,Acu-Link.com,2013-12-02 19:00:00,
2013-12-02 14:15:00,52.0,39.4,29.70,NNW,337,0.0,-999.0,62,-99.99,,,0.00,Acu-Link.com,2013-12-02 19:15:00,
2013-12-02 14:30:00,51.1,38.9,29.70,ESE,112,1.1,-999.0,63,-99.99,,,0.00,Acu-Link.com,2013-12-02 19:30:00,
2013-12-02 14:45:00,51.8,39.6,29.69,SW,225,0.0,-999.0,63,-99.99,,,0.00,Acu-Link.com,2013-12-02 19:45:00,
2013-12-02 15:00:00,52.5,40.3,29.68,West,270,0.0,-999.0,63,-99.99,,,0.00,Acu-Link.com,2013-12-02 20:00:00,
2013-12-02 15:15:00,52.5,39.9,29.67,East,90,1.7,-999.0,62,-99.99,,,0.00,Acu-Link.com,2013-12-02 20:15:00,
2013-12-02 15:30:00,52.2,40.0,29.68,West,270,1.1,-999.0,63,-99.99,,,0.00,Acu-Link.com,2013-12-02 20:30:00,
2013-12-02 15:46:00,51.6,39.4,29.67,NE,45,1.7,-999.0,63,-99.99,,,0.00,Acu-Link.com,2013-12-02 20:46:00,
2013-12-02 16:01:00,50.9,39.6,29.67,SSW,202,0.0,-999.0,65,-99.99,,,0.00,Acu-Link.com,2013-12-02 21:01:00,
2013-12-02 16:16:00,50.5,39.2,29.68,WNW,292,0.0,-999.0,65,-99.99,,,0.00,Acu-Link.com,2013-12-02 21:16:00,
2013-12-02 16:31:00,50.2,39.3,29.69,NW,315,0.0,-999.0,66,-99.99,,,0.00,Acu-Link.com,2013-12-02 21:31:00,
2013-12-02 16:46:00,49.5,39.0,29.69,WNW,292,0.0,-999.0,67,-99.99,,,0.00,Acu-Link.com,2013-12-02 21:46:00,
2013-12-02 17:01:00,48.9,39.2,29.69,ENE,67,0.0,-999.0,69,-99.99,,,0.00,Acu-Link.com,2013-12-02 22:01:00,
2013-12-02 17:17:00,48.2,39.2,29.69,NNW,337,0.0,-999.0,71,-99.99,,,0.00,Acu-Link.com,2013-12-02 22:17:00,
2013-12-02 17:32:00,47.5,38.9,29.69,WNW,292,0.0,-999.0,72,-99.99,,,0.00,Acu-Link.com,2013-12-02 22:32:00,
2013-12-02 17:47:00,46.4,38.2,29.69,NW,315,0.0,-999.0,73,-99.99,,,0.00,Acu-Link.com,2013-12-02 22:47:00,
2013-12-02 18:02:00,46.0,38.2,29.69,North,0,0.0,-999.0,74,-99.99,,,0.00,Acu-Link.com,2013-12-02 23:02:00,
2013-12-02 18:18:00,45.9,38.1,29.70,NNW,337,0.0,-999.0,74,-99.99,,,0.00,Acu-Link.com,2013-12-02 23:18:00,
2013-12-02 18:33:00,45.5,38.4,29.70,NW,315,0.0,-999.0,76,-99.99,,,0.00,Acu-Link.com,2013-12-02 23:33:00,
2013-12-02 18:48:00,45.1,38.3,29.70,NNE,22,0.0,-999.0,77,-99.99,,,0.00,Acu-Link.com,2013-12-02 23:48:00,
2013-12-02 19:03:00,44.8,38.7,29.70,NE,45,0.0,-999.0,79,-99.99,,,0.00,Acu-Link.com,2013-12-03 00:03:00,
2013-12-02 19:19:00,44.4,38.3,29.70,NNW,337,0.0,-999.0,79,-99.99,,,0.00,Acu-Link.com,2013-12-03 00:19:00,
2013-12-02 19:34:00,44.1,38.3,29.70,NNW,337,0.0,-999.0,80,-99.99,,,0.00,Acu-Link.com,2013-12-03 00:34:00,
2013-12-02 19:49:00,43.7,38.6,29.71,West,270,0.0,-999.0,82,-99.99,,,0.00,Acu-Link.com,2013-12-03 00:49:00,
2013-12-02 20:05:00,43.3,38.2,29.71,SSW,202,0.0,-999.0,82,-99.99,,,0.00,Acu-Link.com,2013-12-03 01:05:00,
2013-12-02 20:20:00,42.8,38.3,29.71,NW,315,0.0,-999.0,84,-99.99,,,0.00,Acu-Link.com,2013-12-03 01:20:00,
2013-12-02 20:35:00,42.3,37.8,29.71,NNE,22,0.0,-999.0,84,-99.99,,,0.00,Acu-Link.com,2013-12-03 01:35:00,
2013-12-02 20:50:00,41.7,37.5,29.71,North,0,0.0,-999.0,85,-99.99,,,0.00,Acu-Link.com,2013-12-03 01:50:00,
2013-12-02 21:06:00,41.2,37.3,29.71,West,270,0.0,-999.0,86,-99.99,,,0.00,Acu-Link.com,2013-12-03 02:06:00,
2013-12-02 21:21:00,41.4,37.5,29.71,NNW,337,0.0,-999.0,86,-99.99,,,0.00,Acu-Link.com,2013-12-03 02:21:00,
2013-12-02 21:36:00,41.5,37.6,29.71,WNW,292,0.0,-999.0,86,-99.99,,,0.00,Acu-Link.com,2013-12-03 02:36:00,
2013-12-02 21:51:00,41.7,37.8,29.71,NE,45,0.0,-999.0,86,-99.99,,,0.00,Acu-Link.com,2013-12-03 02:51:00,
2013-12-02 22:07:00,41.5,37.6,29.72,ESE,112,1.1,-999.0,86,-99.99,,,0.00,Acu-Link.com,2013-12-03 03:07:00,
2013-12-02 22:22:00,41.4,37.5,29.72,WSW,247,0.0,-999.0,86,-99.99,,,0.00,Acu-Link.com,2013-12-03 03:22:00,
2013-12-02 22:37:00,41.4,37.8,29.72,West,270,0.0,-999.0,87,-99.99,,,0.00,Acu-Link.com,2013-12-03 03:37:00,
2013-12-02 22:52:00,41.2,37.6,29.72,SW,225,0.0,-999.0,87,-99.99,,,0.00,Acu-Link.com,2013-12-03 03:52:00,
2013-12-02 23:08:00,41.2,37.6,29.72,WNW,292,0.0,-999.0,87,-99.99,,,0.00,Acu-Link.com,2013-12-03 04:08:00,
2013-12-02 23:23:00,40.6,37.0,29.71,NNW,337,0.0,-999.0,87,-99.99,,,0.00,Acu-Link.com,2013-12-03 04:23:00,
2013-12-02 23:38:00,39.7,36.4,29.71,ENE,67,0.0,-999.0,88,-99.99,,,0.00,Acu-Link.com,2013-12-03 04:38:00,
2013-12-02 23:54:00,39.0,36.3,29.72,NNW,337,0.0,-999.0,90,-99.99,,,0.00,Acu-Link.com,2013-12-03 04:54:00,